Ban Ao Nang, Thailand

12:34 PM +07 on December 17, 2017 (GMT +0700)
Na Tin Spicy Garden | | Change Station

Elev 75 ft 8.06 °N, 98.81 °E | Updated 31 seconds ago

Mostly Cloudy
Mostly Cloudy
88.0 °F
Feels Like 111 °F
N
0.0
Wind Variable Wind from ENE
Gusts 0.0 mph

Today
High -- | Low -- °F
--% Chance of Precip.
Yesterday
High -- | Low -- °F
Precip. -- in
Pressure 29.95 in
Visibility 6.2 miles
Clouds Mostly Cloudy 2000 ft
Heat Index 111 °F
Dew Point 84 °F
Humidity 87%
Rainfall 0.00 in
Snow Depth Not available.
6:31 AM 6:10 PM
Waning Crescent, 1% visible
METAR VTSG 170500Z 08006KT 020V140 9999 BKN020 32/24 Q1014
Pressure 29.95 in
Visibility 6.2 miles
Clouds Mostly Cloudy 2000 ft
Heat Index 111 °F
Dew Point 84 °F
Humidity 87%
Rainfall 0.00 in
Snow Depth Not available.
6:31 AM 6:10 PM
Waning Crescent, 1% visible
METAR VTSG 170500Z 08006KT 020V140 9999 BKN020 32/24 Q1014

Get Severe Weather Alerts

Thanks for signing up!

Be on the lookout for a verification email in your inbox.

You'll start receiving the daily forecast at 6 AM.

×

10-Day Weather Forecast

No radar image for this location.
×

Almanac

Astronomy

Dec. 17, 2017 Rise Set
Actual Time
Civil Twilight
Nautical Twilight
Astronomical Twilight
Moon
Length of Visible Light
Length of Day
Tomorrow will be .
, % of the Moon is Illuminated

Today's Extremes

Country Highs Country Lows

Community

WunderPhotos

Category 6

Welcome to Category 6. This is the collective home for Weather Underground's featured writeups by Dr. Jeff Masters (right), Bob Henson (left), Chris Burt, and other regular contributors.

Nearby

Air Quality

  Air Quality AQ Index Pollutant
Not available.

Snow Depth

Station Depth Elevation

Earthquake Activity

City Distance Mag. Time & Date
Minimum magnitude displayed is 2.5.

Coastal Water Temperatures

Place Temperature

Stations

Nearby Weather Stations

Station Location Temp. Windchill Dew Point Humidity Wind Precip. Elev Updated Type